Time;durP1;ratioP1;P1;durP2;ratioP2;P2;SDS_P1;SDS_P2;PMS_P1;PMS_P2;Temp;Humidity;BMP_temperature;BMP_pressure;BME280_temperature;BME280_humidity;BME280_pressure;Samples;Min_cycle;Max_cycle;Signal;HPM_P1;HPM_P2
2024/01/01 00:01:07;;;;;;;51.78;27.27;;;4.70;99.90;;;;;;4962481;28;20086;-74
2024/01/01 00:03:32;;;;;;;45.83;25.00;;;4.70;99.90;;;;;;4962468;28;20052;-74
2024/01/01 00:05:58;;;;;;;45.08;25.15;;;4.70;99.90;;;;;;4964917;28;20030;-74
2024/01/01 00:08:24;;;;;;;47.22;24.65;;;4.80;99.90;;;;;;4971441;28;20031;-74
2024/01/01 00:10:50;;;;;;;44.03;21.40;;;4.90;99.90;;;;;;4965328;28;20107;-74
2024/01/01 00:13:15;;;;;;;38.83;22.30;;;4.90;99.90;;;;;;4953477;28;20027;-77
2024/01/01 00:15:41;;;;;;;35.60;19.48;;;4.90;99.90;;;;;;4965090;28;20026;-75
2024/01/01 00:18:06;;;;;;;31.40;16.63;;;5.00;99.90;;;;;;4970159;28;20039;-74
2024/01/01 00:20:32;;;;;;;33.28;15.95;;;5.00;99.90;;;;;;4962248;28;20027;-76
2024/01/01 00:22:58;;;;;;;30.15;15.63;;;5.10;99.90;;;;;;4972129;28;20603;-75
2024/01/01 00:25:23;;;;;;;33.63;16.00;;;5.10;99.90;;;;;;4972236;28;20023;-76
2024/01/01 00:27:49;;;;;;;29.55;15.65;;;5.20;99.90;;;;;;4964727;28;20085;-75
2024/01/01 00:30:14;;;;;;;30.40;15.07;;;5.20;99.90;;;;;;4966764;28;20054;-75
2024/01/01 00:32:40;;;;;;;29.75;16.77;;;5.30;99.90;;;;;;4966033;28;20027;-74
2024/01/01 00:35:06;;;;;;;30.42;15.43;;;5.30;99.90;;;;;;4965141;28;20023;-76
2024/01/01 00:37:32;;;;;;;25.02;13.52;;;5.30;99.90;;;;;;4967855;28;20023;-75
2024/01/01 00:39:58;;;;;;;25.00;14.02;;;5.30;99.90;;;;;;4971923;28;20042;-75
2024/01/01 00:42:24;;;;;;;29.75;14.73;;;5.30;99.90;;;;;;4957347;28;20034;-75
2024/01/01 00:44:50;;;;;;;30.77;15.27;;;5.30;99.90;;;;;;4961025;28;20085;-77
2024/01/01 00:47:16;;;;;;;28.85;13.95;;;5.30;99.90;;;;;;4968121;28;20027;-78
2024/01/01 00:49:41;;;;;;;26.92;14.07;;;5.30;99.90;;;;;;4968475;28;20038;-76
2024/01/01 00:52:07;;;;;;;27.48;13.07;;;5.30;99.90;;;;;;4971066;28;20019;-80
2024/01/01 00:54:32;;;;;;;27.20;13.52;;;5.30;99.90;;;;;;4963887;28;20042;-76
2024/01/01 00:56:59;;;;;;;24.63;12.73;;;5.20;99.90;;;;;;4970906;28;20042;-74
2024/01/01 00:59:24;;;;;;;25.40;13.23;;;5.20;99.90;;;;;;4944531;28;20384;-76
2024/01/01 01:01:50;;;;;;;26.52;13.30;;;5.20;99.90;;;;;;4962465;28;20039;-77
2024/01/01 01:04:16;;;;;;;24.60;12.63;;;5.10;99.90;;;;;;4967747;28;20027;-78
2024/01/01 01:06:43;;;;;;;22.52;12.13;;;5.20;99.90;;;;;;4961237;28;20030;-74
2024/01/01 01:09:09;;;;;;;19.20;11.60;;;5.20;99.90;;;;;;4963987;28;20035;-76
2024/01/01 01:11:35;;;;;;;21.77;11.68;;;5.20;99.90;;;;;;4967081;28;20101;-77
2024/01/01 01:14:01;;;;;;;21.00;10.73;;;5.20;99.90;;;;;;4956676;28;20023;-77
2024/01/01 01:16:27;;;;;;;24.08;11.88;;;5.20;99.90;;;;;;4967667;28;20066;-79
2024/01/01 01:18:52;;;;;;;21.48;11.18;;;5.10;99.90;;;;;;4961495;28;20034;-73
2024/01/01 01:21:18;;;;;;;19.65;10.68;;;5.10;99.90;;;;;;4965896;28;20065;-76
2024/01/01 01:23:43;;;;;;;20.75;10.93;;;5.10;99.90;;;;;;4959974;28;20035;-77
2024/01/01 01:26:09;;;;;;;19.67;9.65;;;5.10;99.90;;;;;;4971771;28;20110;-74
2024/01/01 01:28:35;;;;;;;20.80;10.23;;;5.10;99.90;;;;;;4966190;28;20121;-76
2024/01/01 01:31:03;;;;;;;24.65;10.65;;;5.20;99.90;;;;;;4964549;28;20019;-74
2024/01/01 01:33:29;;;;;;;24.17;10.63;;;5.20;99.90;;;;;;4964358;28;20034;-78
2024/01/01 01:35:54;;;;;;;23.17;10.75;;;5.30;99.90;;;;;;4958129;28;20022;-75
2024/01/01 01:38:21;;;;;;;21.17;10.30;;;5.30;99.90;;;;;;4959882;28;20090;-74
2024/01/01 01:40:46;;;;;;;20.33;10.05;;;5.30;99.90;;;;;;4957387;28;20038;-74
2024/01/01 01:43:22;;;;;;;16.88;9.68;;;5.30;99.90;;;;;;4972010;28;20380;-75
2024/01/01 01:45:50;;;;;;;16.05;8.18;;;5.30;99.90;;;;;;4969567;28;20027;-74
2024/01/01 01:48:17;;;;;;;18.70;9.52;;;5.20;99.90;;;;;;4961642;28;20425;-75
2024/01/01 01:50:45;;;;;;;13.82;8.13;;;5.20;99.90;;;;;;4970269;28;20360;-72
2024/01/01 01:53:13;;;;;;;16.55;7.72;;;5.10;99.90;;;;;;4943507;29;20027;-73
2024/01/01 01:55:41;;;;;;;13.98;7.13;;;5.10;99.90;;;;;;4955663;28;20031;-72
2024/01/01 01:58:07;;;;;;;18.15;7.85;;;5.10;99.90;;;;;;4964623;28;20042;-75
2024/01/01 02:00:32;;;;;;;14.95;7.90;;;5.20;99.90;;;;;;4966398;28;20031;-75
2024/01/01 02:02:58;;;;;;;14.77;7.78;;;5.20;99.90;;;;;;4956490;28;20033;-75
2024/01/01 02:05:24;;;;;;;13.00;7.20;;;5.20;99.90;;;;;;4966513;28;20030;-74
2024/01/01 02:07:49;;;;;;;16.33;7.30;;;5.20;99.90;;;;;;4967583;28;20114;-74
2024/01/01 02:10:15;;;;;;;12.23;6.90;;;5.10;99.90;;;;;;4956778;28;20349;-74
2024/01/01 02:12:45;;;;;;;12.88;6.45;;;5.20;99.90;;;;;;4958005;28;20058;-72
2024/01/01 02:15:10;;;;;;;18.55;6.78;;;5.20;99.90;;;;;;4957178;28;20034;-73
2024/01/01 02:17:36;;;;;;;15.40;6.60;;;5.30;99.90;;;;;;4965760;28;20055;-76
2024/01/01 02:20:02;;;;;;;12.75;7.18;;;5.20;99.90;;;;;;4958382;28;20550;-74
2024/01/01 02:22:38;;;;;;;12.90;6.68;;;5.30;99.90;;;;;;4966819;28;20121;-74
2024/01/01 02:25:05;;;;;;;12.30;6.18;;;5.20;99.90;;;;;;4969101;28;20110;-75
2024/01/01 02:27:31;;;;;;;14.27;7.20;;;5.20;99.90;;;;;;4964828;28;20027;-75
2024/01/01 02:29:56;;;;;;;16.70;6.05;;;5.20;99.90;;;;;;4960871;28;20096;-74
2024/01/01 02:32:22;;;;;;;12.60;6.32;;;5.20;99.90;;;;;;4969968;28;20031;-73
2024/01/01 02:34:48;;;;;;;11.25;6.70;;;5.20;99.90;;;;;;4963410;28;20033;-74
2024/01/01 02:37:13;;;;;;;14.00;6.60;;;5.20;99.90;;;;;;4967225;28;20042;-74
2024/01/01 02:39:39;;;;;;;12.68;5.30;;;5.20;99.90;;;;;;4960453;28;20303;-73
2024/01/01 02:42:05;;;;;;;18.52;6.30;;;5.20;99.90;;;;;;4956827;28;20035;-74
2024/01/01 02:44:31;;;;;;;13.18;6.25;;;5.20;99.90;;;;;;4960486;28;20459;-74
2024/01/01 02:46:56;;;;;;;13.10;5.93;;;5.20;99.90;;;;;;4968451;28;20105;-75
2024/01/01 02:49:22;;;;;;;13.20;6.47;;;5.20;99.90;;;;;;4972162;28;20673;-74
2024/01/01 02:51:48;;;;;;;13.32;6.32;;;5.20;99.90;;;;;;4970574;28;20511;-75
2024/01/01 02:54:15;;;;;;;11.27;5.32;;;5.20;99.90;;;;;;4962108;28;20465;-73
2024/01/01 02:56:41;;;;;;;12.52;5.75;;;5.10;99.90;;;;;;4970347;28;20499;-74
2024/01/01 02:59:07;;;;;;;14.65;6.32;;;5.10;99.90;;;;;;4961017;28;20031;-72
2024/01/01 03:01:33;;;;;;;11.95;6.25;;;5.10;99.90;;;;;;4964611;28;20103;-74
2024/01/01 03:03:58;;;;;;;12.77;5.32;;;5.00;99.90;;;;;;4961277;28;20330;-75
2024/01/01 03:06:24;;;;;;;11.85;6.22;;;4.90;99.90;;;;;;4966870;28;20038;-74
2024/01/01 03:08:49;;;;;;;18.65;8.45;;;4.80;99.90;;;;;;4956409;28;20031;-75
2024/01/01 03:11:15;;;;;;;13.00;6.13;;;4.70;99.90;;;;;;4942714;29;20098;-71
2024/01/01 03:13:40;;;;;;;15.18;7.05;;;4.60;99.90;;;;;;4963859;28;20468;-72
2024/01/01 03:16:06;;;;;;;14.30;5.85;;;4.50;99.90;;;;;;4967676;28;20127;-74
2024/01/01 03:18:32;;;;;;;16.05;7.07;;;4.50;99.90;;;;;;4958462;28;20115;-75
2024/01/01 03:20:57;;;;;;;13.77;7.00;;;4.40;99.90;;;;;;4967646;28;20062;-78
2024/01/01 03:23:23;;;;;;;15.63;7.45;;;4.30;99.90;;;;;;4968927;28;20086;-75
2024/01/01 03:25:49;;;;;;;15.32;6.45;;;4.20;99.90;;;;;;4965259;28;20119;-77
2024/01/01 03:28:15;;;;;;;13.48;7.13;;;4.30;99.90;;;;;;4967606;28;20038;-76
2024/01/01 03:30:40;;;;;;;14.25;6.68;;;4.30;99.90;;;;;;4975365;28;20376;-73
2024/01/01 03:33:06;;;;;;;17.23;7.35;;;4.30;99.90;;;;;;4962125;28;20039;-74
2024/01/01 03:35:32;;;;;;;13.55;7.45;;;4.40;99.90;;;;;;4968726;28;20019;-75
2024/01/01 03:37:58;;;;;;;17.35;7.43;;;4.40;99.90;;;;;;4963312;28;20093;-76
2024/01/01 03:40:24;;;;;;;15.00;6.90;;;4.40;99.90;;;;;;4976596;28;20091;-75
2024/01/01 03:42:50;;;;;;;13.38;6.70;;;4.50;99.90;;;;;;4984585;28;20043;-73
2024/01/01 03:45:16;;;;;;;15.75;7.35;;;4.50;99.90;;;;;;4993825;28;20439;-76
2024/01/01 03:47:42;;;;;;;12.63;6.93;;;4.60;99.90;;;;;;4993670;28;20022;-75
2024/01/01 03:50:08;;;;;;;14.10;6.50;;;4.60;99.90;;;;;;4969047;28;20154;-75
2024/01/01 03:52:33;;;;;;;11.32;6.60;;;4.60;99.90;;;;;;4964427;28;20030;-75
2024/01/01 03:54:59;;;;;;;14.73;7.07;;;4.60;99.90;;;;;;4966464;28;20118;-75
2024/01/01 03:57:25;;;;;;;11.38;6.25;;;4.60;99.90;;;;;;4970235;28;20391;-73
2024/01/01 03:59:50;;;;;;;14.00;6.30;;;4.60;99.90;;;;;;4964081;28;20182;-73
2024/01/01 04:02:16;;;;;;;12.68;6.57;;;4.60;99.90;;;;;;4964660;28;20531;-75
2024/01/01 04:04:43;;;;;;;10.93;5.60;;;4.60;99.90;;;;;;4973712;28;20031;-73
2024/01/01 04:07:09;;;;;;;12.77;5.15;;;4.60;99.90;;;;;;4963499;28;20031;-75
2024/01/01 04:09:34;;;;;;;9.27;4.90;;;4.60;99.90;;;;;;4967085;28;20085;-75
2024/01/01 04:12:00;;;;;;;8.77;4.20;;;4.60;99.90;;;;;;4961193;28;20635;-78
2024/01/01 04:14:25;;;;;;;9.07;4.13;;;4.50;99.90;;;;;;4973600;28;20027;-76
2024/01/01 04:16:51;;;;;;;11.48;5.13;;;4.40;99.90;;;;;;4964360;28;20059;-76
2024/01/01 04:19:17;;;;;;;11.25;5.05;;;4.30;99.90;;;;;;4967757;28;20057;-75
2024/01/01 04:21:43;;;;;;;12.60;4.28;;;4.20;99.90;;;;;;4970838;28;20109;-74
2024/01/01 04:24:09;;;;;;;12.18;4.75;;;4.20;99.90;;;;;;4971258;28;20078;-75
2024/01/01 04:26:36;;;;;;;9.85;4.47;;;4.10;99.90;;;;;;4967280;28;20039;-74
2024/01/01 04:29:02;;;;;;;7.18;3.67;;;4.10;99.90;;;;;;4964251;28;20619;-72
2024/01/01 04:31:28;;;;;;;6.05;2.80;;;4.10;99.90;;;;;;4968544;28;20182;-74
2024/01/01 04:33:54;;;;;;;8.95;2.97;;;4.10;99.90;;;;;;4961078;28;20038;-74
2024/01/01 04:36:20;;;;;;;8.95;2.47;;;4.20;99.90;;;;;;4962274;28;20492;-75
2024/01/01 04:38:46;;;;;;;6.68;1.92;;;4.20;99.90;;;;;;4971430;28;20035;-72
2024/01/01 04:41:12;;;;;;;4.32;1.80;;;4.30;99.90;;;;;;4962493;28;20031;-74
2024/01/01 04:43:40;;;;;;;6.20;1.92;;;4.30;99.90;;;;;;4961618;28;20639;-74
2024/01/01 04:46:09;;;;;;;7.53;1.92;;;4.40;99.90;;;;;;4960118;28;20027;-74
2024/01/01 04:48:34;;;;;;;4.82;1.92;;;4.50;99.90;;;;;;4966827;28;20085;-76
2024/01/01 04:51:00;;;;;;;6.68;1.95;;;4.50;99.90;;;;;;4959255;28;20118;-75
2024/01/01 04:53:26;;;;;;;8.48;2.17;;;4.50;99.90;;;;;;4967372;28;20026;-76
2024/01/01 04:55:52;;;;;;;7.07;2.65;;;4.50;99.90;;;;;;4969691;28;20039;-75
2024/01/01 04:58:17;;;;;;;2.97;1.70;;;4.50;99.90;;;;;;4969075;28;20118;-74
2024/01/01 05:00:43;;;;;;;2.75;1.40;;;4.50;99.90;;;;;;4960620;28;20039;-72
2024/01/01 05:03:08;;;;;;;4.40;1.77;;;4.40;99.90;;;;;;4970600;28;20035;-74
2024/01/01 05:05:34;;;;;;;5.40;2.00;;;4.40;99.90;;;;;;4973014;28;20031;-74
2024/01/01 05:08:00;;;;;;;7.78;2.22;;;4.30;99.90;;;;;;4969978;28;20116;-73
2024/01/01 05:10:26;;;;;;;5.65;1.83;;;4.30;99.90;;;;;;4963192;28;20031;-73
2024/01/01 05:12:52;;;;;;;5.38;1.85;;;4.30;99.90;;;;;;4970648;28;20033;-72
2024/01/01 05:15:18;;;;;;;7.00;1.98;;;4.30;99.90;;;;;;4971977;28;20027;-75
2024/01/01 05:17:43;;;;;;;3.83;1.67;;;4.30;99.90;;;;;;4962947;28;20046;-73
2024/01/01 05:20:09;;;;;;;2.83;1.60;;;4.20;99.90;;;;;;4966543;28;20038;-75
2024/01/01 05:22:35;;;;;;;8.95;2.80;;;4.20;99.90;;;;;;4959382;28;20027;-73
2024/01/01 05:25:00;;;;;;;12.32;3.20;;;4.20;99.90;;;;;;4971832;28;20027;-75
2024/01/01 05:27:26;;;;;;;6.38;1.27;;;4.30;99.90;;;;;;4959868;28;20086;-75
2024/01/01 05:29:52;;;;;;;5.50;1.50;;;4.40;99.90;;;;;;4962013;28;20050;-76
2024/01/01 05:32:17;;;;;;;4.43;1.33;;;4.40;99.90;;;;;;4963461;28;20035;-74
2024/01/01 05:34:43;;;;;;;5.75;1.83;;;4.50;99.90;;;;;;4971981;28;20146;-72
2024/01/01 05:37:09;;;;;;;6.55;1.90;;;4.50;99.90;;;;;;4969768;28;20066;-74
2024/01/01 05:39:35;;;;;;;10.43;2.47;;;4.50;99.90;;;;;;4965788;28;20484;-74
2024/01/01 05:42:01;;;;;;;6.43;1.83;;;4.50;99.90;;;;;;4965854;28;20092;-75
2024/01/01 05:44:27;;;;;;;8.88;2.17;;;4.60;99.90;;;;;;4967847;28;20480;-75
2024/01/01 05:46:52;;;;;;;8.85;2.05;;;4.50;99.90;;;;;;4957005;28;20358;-76
2024/01/01 05:49:18;;;;;;;4.93;1.90;;;4.50;99.90;;;;;;4961648;28;20036;-74
2024/01/01 05:51:48;;;;;;;6.70;1.70;;;4.50;99.90;;;;;;4958420;28;20030;-74
2024/01/01 05:54:13;;;;;;;3.65;1.90;;;4.50;99.90;;;;;;4963678;28;20042;-75
2024/01/01 05:56:39;;;;;;;7.00;2.58;;;4.50;99.90;;;;;;4963934;28;20023;-74
2024/01/01 05:59:05;;;;;;;3.50;1.75;;;4.50;99.90;;;;;;4961935;28;20023;-76
2024/01/01 06:01:30;;;;;;;4.40;1.67;;;4.60;99.90;;;;;;4960923;28;20465;-75
2024/01/01 06:03:56;;;;;;;5.10;1.63;;;4.60;99.90;;;;;;4962168;28;20074;-75
2024/01/01 06:06:25;;;;;;;7.28;1.80;;;4.60;99.90;;;;;;4966625;28;20030;-75
2024/01/01 06:08:51;;;;;;;5.22;2.22;;;4.60;99.90;;;;;;4960875;28;20492;-77
2024/01/01 06:11:17;;;;;;;8.55;1.95;;;4.60;99.90;;;;;;4961408;28;20035;-75
2024/01/01 06:13:43;;;;;;;7.13;1.98;;;4.70;99.90;;;;;;4962902;28;20027;-74
2024/01/01 06:16:09;;;;;;;5.88;1.83;;;4.70;99.90;;;;;;4961293;28;20130;-76
2024/01/01 06:18:35;;;;;;;5.63;1.80;;;4.60;99.90;;;;;;4965217;28;20508;-75
2024/01/01 06:21:01;;;;;;;3.72;1.58;;;4.60;99.90;;;;;;4963100;28;20576;-76
2024/01/01 06:23:26;;;;;;;4.68;1.80;;;4.60;99.90;;;;;;4964692;28;20031;-76
2024/01/01 06:25:52;;;;;;;3.05;1.80;;;4.50;99.90;;;;;;4962962;28;20057;-76
2024/01/01 06:28:18;;;;;;;5.88;1.40;;;4.40;99.90;;;;;;4964029;28;20031;-77
2024/01/01 06:30:44;;;;;;;4.88;1.70;;;4.40;99.90;;;;;;4958828;28;20053;-76
2024/01/01 06:33:10;;;;;;;7.07;1.63;;;4.40;99.90;;;;;;4964592;28;20047;-76
2024/01/01 06:35:35;;;;;;;5.20;1.33;;;4.40;99.90;;;;;;4963805;28;20089;-76
2024/01/01 06:38:01;;;;;;;7.10;1.70;;;4.30;99.90;;;;;;4960132;28;20031;-75
2024/01/01 06:40:27;;;;;;;4.45;1.60;;;4.30;99.90;;;;;;4961721;28;20037;-76
2024/01/01 06:42:53;;;;;;;3.03;1.60;;;4.20;99.90;;;;;;4955515;28;20436;-75
2024/01/01 06:45:18;;;;;;;5.03;1.20;;;4.20;99.90;;;;;;4960200;28;20066;-76
2024/01/01 06:47:44;;;;;;;6.63;1.98;;;4.10;99.90;;;;;;4964814;28;20038;-75
2024/01/01 06:50:10;;;;;;;7.45;1.70;;;4.10;99.90;;;;;;4956204;28;20028;-76
2024/01/01 06:52:35;;;;;;;6.10;1.90;;;4.10;99.90;;;;;;4958612;28;20376;-76
2024/01/01 06:55:01;;;;;;;6.80;1.77;;;4.10;99.90;;;;;;4967561;28;20023;-76
2024/01/01 06:57:27;;;;;;;7.72;1.75;;;4.10;99.90;;;;;;4971032;28;20085;-75
2024/01/01 06:59:53;;;;;;;8.88;1.85;;;4.10;99.90;;;;;;4962326;28;20064;-75
2024/01/01 07:02:20;;;;;;;3.95;1.40;;;4.10;99.90;;;;;;4959179;28;20070;-75
2024/01/01 07:04:45;;;;;;;5.72;1.48;;;4.10;99.90;;;;;;4962385;28;20429;-76
2024/01/01 07:07:11;;;;;;;5.55;1.70;;;4.00;99.90;;;;;;4963980;28;20461;-75
2024/01/01 07:09:36;;;;;;;7.03;1.30;;;4.00;99.90;;;;;;4963194;28;20110;-75
2024/01/01 07:12:19;;;;;;;9.05;1.40;;;4.00;99.90;;;;;;4967064;28;20558;-76
2024/01/01 07:14:46;;;;;;;9.15;1.45;;;3.90;99.90;;;;;;4955813;28;20555;-75
2024/01/01 07:17:12;;;;;;;8.70;1.95;;;3.90;99.90;;;;;;4968002;28;20051;-75
2024/01/01 07:19:38;;;;;;;3.35;1.35;;;3.80;99.90;;;;;;4974914;28;20073;-76
2024/01/01 07:22:04;;;;;;;4.40;1.10;;;3.80;99.90;;;;;;4974874;28;20063;-75
2024/01/01 07:24:30;;;;;;;5.68;1.13;;;3.70;99.90;;;;;;4970783;28;20031;-76
2024/01/01 07:26:56;;;;;;;11.35;1.83;;;3.70;99.90;;;;;;4966453;28;20032;-76
2024/01/01 07:29:21;;;;;;;5.63;1.27;;;3.70;99.90;;;;;;4971184;28;20113;-76
2024/01/01 07:31:47;;;;;;;9.63;1.58;;;3.60;99.90;;;;;;4972781;28;20114;-75
2024/01/01 07:34:15;;;;;;;6.18;1.35;;;3.70;99.90;;;;;;4961317;28;20098;-76
2024/01/01 07:36:42;;;;;;;4.03;1.15;;;3.70;99.90;;;;;;4964166;28;20392;-74
2024/01/01 07:39:08;;;;;;;4.22;1.13;;;3.70;99.90;;;;;;4965977;28;20385;-75
2024/01/01 07:41:33;;;;;;;9.38;1.63;;;3.70;99.90;;;;;;4961091;28;20058;-75
2024/01/01 07:43:59;;;;;;;5.35;1.52;;;3.80;99.90;;;;;;4965048;28;20084;-75
2024/01/01 07:46:24;;;;;;;3.38;0.98;;;3.80;99.90;;;;;;4971577;28;20388;-76
2024/01/01 07:48:50;;;;;;;6.82;1.13;;;3.80;99.90;;;;;;4966677;28;20038;-75
2024/01/01 07:51:16;;;;;;;11.15;1.50;;;3.80;99.90;;;;;;4965178;28;20106;-77
2024/01/01 07:53:42;;;;;;;13.02;1.35;;;3.80;99.90;;;;;;4971738;28;20034;-74
2024/01/01 07:56:08;;;;;;;10.00;1.48;;;3.90;99.90;;;;;;4973443;28;20130;-76
2024/01/01 07:58:34;;;;;;;7.32;1.23;;;3.90;99.90;;;;;;4970802;28;20465;-76
2024/01/01 08:00:59;;;;;;;7.45;1.88;;;3.90;99.90;;;;;;4964165;28;20034;-75
2024/01/01 08:03:25;;;;;;;6.75;1.25;;;4.00;99.90;;;;;;4969476;28;20035;-76
2024/01/01 08:05:51;;;;;;;6.72;1.33;;;4.00;99.90;;;;;;4968809;28;20528;-76
2024/01/01 08:08:17;;;;;;;7.53;1.40;;;4.00;99.90;;;;;;4960591;28;20146;-77
2024/01/01 08:10:43;;;;;;;7.80;0.93;;;4.00;99.90;;;;;;4963834;28;20113;-74
2024/01/01 08:13:09;;;;;;;7.20;1.95;;;3.90;99.90;;;;;;4968126;28;20404;-77
2024/01/01 08:15:34;;;;;;;9.27;1.20;;;4.00;99.90;;;;;;4962023;28;20027;-74
2024/01/01 08:18:02;;;;;;;7.53;1.63;;;4.10;99.90;;;;;;4966628;28;20037;-76
2024/01/01 08:20:29;;;;;;;7.78;1.27;;;4.10;99.90;;;;;;4961901;28;20193;-76
2024/01/01 08:22:55;;;;;;;6.57;1.95;;;4.20;99.90;;;;;;4968063;28;20483;-76
2024/01/01 08:25:21;;;;;;;7.88;1.30;;;4.40;99.90;;;;;;4965153;28;20027;-76
2024/01/01 08:27:47;;;;;;;12.27;1.77;;;4.40;99.90;;;;;;4969908;28;20029;-78
2024/01/01 08:30:13;;;;;;;6.18;1.20;;;4.50;99.90;;;;;;4973592;28;20023;-82
2024/01/01 08:32:38;;;;;;;4.47;1.67;;;4.70;99.90;;;;;;4966168;28;20042;-74
2024/01/01 08:35:04;;;;;;;7.18;1.90;;;4.80;99.90;;;;;;4972267;28;20035;-79
2024/01/01 08:37:30;;;;;;;6.82;1.27;;;4.80;99.90;;;;;;4972840;28;20102;-75
2024/01/01 08:39:56;;;;;;;5.80;0.98;;;4.90;99.90;;;;;;4966383;28;20089;-78
2024/01/01 08:42:22;;;;;;;7.28;1.70;;;4.90;99.90;;;;;;4966941;28;20106;-77
2024/01/01 08:44:47;;;;;;;6.88;1.10;;;5.00;99.90;;;;;;4970350;28;20559;-77
2024/01/01 08:47:15;;;;;;;9.48;1.20;;;5.00;99.90;;;;;;4962289;28;20547;-76
2024/01/01 08:49:41;;;;;;;10.07;1.17;;;5.00;99.90;;;;;;4962497;28;20027;-75
2024/01/01 08:52:07;;;;;;;15.43;2.05;;;5.10;99.90;;;;;;4971728;28;20015;-76
2024/01/01 08:54:32;;;;;;;4.38;0.90;;;5.10;99.90;;;;;;4973022;28;20030;-76
2024/01/01 08:56:58;;;;;;;9.63;1.30;;;5.20;99.90;;;;;;4967077;28;20406;-78
2024/01/01 08:59:24;;;;;;;5.70;1.10;;;5.20;99.90;;;;;;4970878;28;20122;-76
2024/01/01 09:01:49;;;;;;;9.60;1.40;;;5.20;99.90;;;;;;4953064;28;20081;-76
2024/01/01 09:04:17;;;;;;;9.02;1.90;;;5.30;99.90;;;;;;4954899;28;20027;-78
2024/01/01 09:06:43;;;;;;;7.10;1.70;;;5.30;99.90;;;;;;4967944;28;20483;-75
2024/01/01 09:09:10;;;;;;;8.82;1.98;;;5.30;99.90;;;;;;4972158;28;20035;-77
2024/01/01 09:11:36;;;;;;;13.85;1.75;;;5.40;99.90;;;;;;4971949;28;20058;-80
2024/01/01 09:14:02;;;;;;;8.13;1.27;;;5.60;99.90;;;;;;4952842;28;20058;-79
2024/01/01 09:16:29;;;;;;;7.88;2.00;;;5.60;99.90;;;;;;4963647;28;20067;-79
2024/01/01 09:18:56;;;;;;;4.57;1.48;;;5.70;99.90;;;;;;4964212;28;20046;-80
2024/01/01 09:21:24;;;;;;;9.13;1.73;;;5.90;99.90;;;;;;4966604;28;20022;-78
2024/01/01 09:23:50;;;;;;;6.70;1.38;;;6.00;99.90;;;;;;4956668;28;20031;-82
2024/01/01 09:26:16;;;;;;;7.72;1.90;;;6.10;99.90;;;;;;4969491;28;20028;-78
2024/01/01 09:28:41;;;;;;;8.57;1.55;;;6.20;99.90;;;;;;4965091;28;20038;-76
2024/01/01 09:31:07;;;;;;;8.43;1.65;;;6.30;99.90;;;;;;4959909;28;20377;-77
2024/01/01 09:33:33;;;;;;;7.95;1.30;;;6.40;99.90;;;;;;4966740;28;20054;-78
2024/01/01 09:35:59;;;;;;;6.03;1.42;;;6.40;99.90;;;;;;4971906;28;20813;-77
2024/01/01 09:38:24;;;;;;;4.60;1.25;;;6.50;99.90;;;;;;4960915;28;20038;-78
2024/01/01 09:40:54;;;;;;;8.23;2.00;;;6.60;99.90;;;;;;4961396;28;20106;-78
2024/01/01 09:43:21;;;;;;;8.23;1.40;;;6.70;99.90;;;;;;4969168;28;20027;-78
2024/01/01 09:45:48;;;;;;;8.88;1.25;;;6.90;99.90;;;;;;4971524;28;20046;-77
2024/01/01 09:48:14;;;;;;;8.77;1.23;;;7.00;99.90;;;;;;4958748;28;20494;-77
2024/01/01 09:50:40;;;;;;;7.40;1.00;;;7.30;99.90;;;;;;4964667;28;20042;-73
2024/01/01 09:53:06;;;;;;;8.43;1.02;;;7.40;99.90;;;;;;4964810;28;20031;-72
2024/01/01 09:55:31;;;;;;;4.05;0.90;;;7.60;99.90;;;;;;4961310;28;20140;-72
2024/01/01 09:57:57;;;;;;;5.43;0.80;;;7.70;99.90;;;;;;4961721;28;20022;-73
2024/01/01 10:00:23;;;;;;;4.22;0.88;;;7.70;99.90;;;;;;4965905;28;20046;-74
2024/01/01 10:02:49;;;;;;;7.57;1.10;;;7.70;99.90;;;;;;4962619;28;20039;-76
2024/01/01 10:05:15;;;;;;;3.80;1.27;;;7.70;99.90;;;;;;4956645;28;20042;-76
2024/01/01 10:07:41;;;;;;;7.53;1.27;;;7.60;99.90;;;;;;4960440;28;20035;-76
2024/01/01 10:10:08;;;;;;;2.63;0.60;;;7.60;99.90;;;;;;4968764;28;20510;-76
2024/01/01 10:12:34;;;;;;;5.45;0.90;;;7.50;99.90;;;;;;4966861;28;20023;-77
2024/01/01 10:15:00;;;;;;;6.65;0.60;;;7.50;99.90;;;;;;4959013;28;20035;-75
2024/01/01 10:17:26;;;;;;;8.07;1.15;;;7.40;99.90;;;;;;4971278;28;20065;-76
2024/01/01 10:20:01;;;;;;;2.72;0.77;;;7.40;99.90;;;;;;4969576;28;20039;-76
2024/01/01 10:22:31;;;;;;;5.47;0.60;;;7.40;99.90;;;;;;4962507;28;20035;-75
2024/01/01 10:25:11;;;;;;;6.40;1.00;;;7.40;99.90;;;;;;4961554;28;20035;-73
2024/01/01 10:27:38;;;;;;;5.65;0.80;;;7.30;99.90;;;;;;4967543;28;20037;-73
2024/01/01 10:30:04;;;;;;;6.70;0.80;;;7.40;99.90;;;;;;4961214;28;20080;-72
2024/01/01 10:32:30;;;;;;;8.00;1.30;;;7.60;99.90;;;;;;4968194;28;20463;-72
2024/01/01 10:34:57;;;;;;;4.88;1.20;;;7.70;99.90;;;;;;4961838;28;20058;-72
2024/01/01 10:37:25;;;;;;;6.38;0.98;;;7.70;99.90;;;;;;4963648;28;20035;-71
2024/01/01 10:39:52;;;;;;;6.32;1.10;;;7.80;99.90;;;;;;4964787;28;20035;-72
2024/01/01 10:42:17;;;;;;;4.82;1.23;;;7.80;99.90;;;;;;4967374;28;20039;-73
2024/01/01 10:44:43;;;;;;;5.30;1.27;;;7.80;99.90;;;;;;4963846;28;20035;-70
2024/01/01 10:47:10;;;;;;;4.82;1.25;;;7.90;99.90;;;;;;4963252;28;20033;-69
2024/01/01 10:49:42;;;;;;;4.50;0.98;;;7.90;99.90;;;;;;4968573;28;20038;-71
2024/01/01 10:52:57;;;;;;;5.50;1.10;;;8.00;99.90;;;;;;4937676;28;20030;-71
2024/01/01 10:55:35;;;;;;;9.38;1.30;;;8.10;99.90;;;;;;4868206;29;20033;-72
2024/01/01 10:58:40;;;;;;;9.52;1.35;;;8.20;99.90;;;;;;4873468;29;20029;-76
2024/01/01 11:01:17;;;;;;;7.93;1.30;;;8.30;99.90;;;;;;4946273;28;20046;-73
2024/01/01 11:03:47;;;;;;;9.05;1.40;;;8.40;99.90;;;;;;4962938;28;20035;-73
2024/01/01 11:06:29;;;;;;;6.75;1.35;;;8.40;99.90;;;;;;4967937;28;20221;-73
2024/01/01 11:08:55;;;;;;;7.15;1.10;;;8.50;99.90;;;;;;4958077;28;20035;-72
2024/01/01 11:11:31;;;;;;;6.47;0.93;;;8.50;99.90;;;;;;4966042;28;20035;-73
2024/01/01 11:13:57;;;;;;;8.25;1.55;;;8.60;99.90;;;;;;4960666;28;20106;-73
2024/01/01 11:16:24;;;;;;;4.95;1.20;;;8.70;99.90;;;;;;4969256;28;20047;-73
2024/01/01 11:18:50;;;;;;;4.65;1.15;;;;;;;;;;4967424;28;20046;-72
2024/01/01 11:21:35;;;;;;;8.52;1.10;;;8.80;99.90;;;;;;4964801;28;20038;-72
2024/01/01 11:24:01;;;;;;;7.50;1.33;;;8.90;99.90;;;;;;4962599;28;20124;-73
2024/01/01 11:26:34;;;;;;;8.95;1.55;;;8.90;99.90;;;;;;4971169;28;20069;-73
2024/01/01 11:29:26;;;;;;;10.20;1.70;;;9.00;99.90;;;;;;4968227;28;20030;-73
2024/01/01 11:32:02;;;;;;;8.15;1.50;;;9.10;99.90;;;;;;4977809;28;20042;-73
2024/01/01 11:34:27;;;;;;;11.13;1.95;;;9.20;99.90;;;;;;4990355;28;20019;-75
2024/01/01 11:36:53;;;;;;;9.50;1.50;;;9.20;99.90;;;;;;4985690;28;20034;-74
2024/01/01 11:39:24;;;;;;;8.05;2.00;;;;;;;;;;4980296;28;20034;-76
2024/01/01 11:41:50;;;;;;;7.55;1.42;;;;;;;;;;4969436;28;20034;-74
2024/01/01 11:44:18;;;;;;;7.70;1.13;;;;;;;;;;4968099;28;20023;-74
2024/01/01 11:46:44;;;;;;;12.68;1.50;;;;;;;;;;4966421;28;20023;-73
2024/01/01 11:49:10;;;;;;;7.00;1.42;;;;;;;;;;4970252;28;20098;-74
2024/01/01 11:51:49;;;;;;;9.57;1.40;;;;;;;;;;4973725;28;20026;-74
2024/01/01 11:54:15;;;;;;;9.15;1.40;;;;;;;;;;4960611;28;20058;-73
2024/01/01 11:56:44;;;;;;;9.57;1.73;;;;;;;;;;4970724;28;20019;-72
2024/01/01 11:59:11;;;;;;;6.30;1.30;;;;;;;;;;4976825;28;20113;-72
2024/01/01 12:01:37;;;;;;;8.80;1.63;;;;;;;;;;4975606;28;20023;-74
2024/01/01 12:04:05;;;;;;;5.82;1.02;;;;;;;;;;4957022;28;20038;-73
2024/01/01 12:06:31;;;;;;;10.63;1.77;;;;;;;;;;4970083;28;20031;-73
2024/01/01 12:09:09;;;;;;;6.05;1.58;;;;;;;;;;4963456;28;20027;-73
2024/01/01 12:11:36;;;;;;;8.25;1.52;;;;;;;;;;4959695;28;20074;-73
2024/01/01 12:14:02;;;;;;;10.00;1.95;;;;;;;;;;4959290;28;20094;-74
2024/01/01 12:16:30;;;;;;;7.70;1.60;;;;;;;;;;4968757;28;20178;-73
2024/01/01 12:18:59;;;;;;;8.77;1.67;;;;;;;;;;4967000;28;20049;-71
2024/01/01 12:21:36;;;;;;;5.63;1.35;;;;;;;;;;4972024;28;20035;-74
2024/01/01 12:24:03;;;;;;;7.47;1.65;;;;;;;;;;4977325;28;20030;-74
2024/01/01 12:26:31;;;;;;;5.07;1.38;;;;;;;;;;4974687;28;20368;-76
2024/01/01 12:29:12;;;;;;;6.57;1.60;;;;;;;;;;4971362;28;20027;-77
2024/01/01 12:31:40;;;;;;;4.88;0.90;;;;;;;;;;4974935;28;20078;-70
2024/01/01 12:34:08;;;;;;;4.82;0.98;;;;;;;;;;4978463;28;20046;-73
2024/01/01 12:36:34;;;;;;;10.32;1.45;;;;;;;;;;4977253;28;20545;-77
2024/01/01 12:39:00;;;;;;;5.78;1.23;;;;;;;;;;4980349;28;20045;-74
2024/01/01 12:41:26;;;;;;;9.25;1.33;;;;;;;;;;4977062;28;20042;-75
2024/01/01 12:43:52;;;;;;;9.63;1.10;;;;;;;;;;4969324;28;20027;-72
2024/01/01 12:46:18;;;;;;;5.57;1.05;;;;;;;;;;4961838;28;20020;-72
2024/01/01 12:48:45;;;;;;;4.05;1.52;;;;;;;;;;4967897;28;20455;-71
2024/01/01 12:51:11;;;;;;;9.70;1.90;;;;;;;;;;4973933;28;20050;-70
2024/01/01 12:53:37;;;;;;;6.25;1.17;;;;;;;;;;4963857;28;20033;-79
2024/01/01 12:56:03;;;;;;;8.15;1.25;;;;;;;;;;4962879;28;20023;-76
2024/01/01 12:58:29;;;;;;;10.07;1.75;;;;;;;;;;4968266;28;20432;-77
2024/01/01 13:00:56;;;;;;;6.00;1.30;;;;;;;;;;4963145;28;20038;-78